Wilson Lahn — 8PUO — position and weather

sailwx.info

Track history (hours):
 
Tides and Currents Weather Stations Pressure Air Temp Water Temp Dewpoint Dewpoint Depression Visibility Wind Speed Wind Dir Waves Ship Positions

Wilson Lahn

Last reported at 2016-Dec-08 21:33 UTC. Time now 2016-Dec-08 22:06 UTC.
Position N 51°54' E 004°25'.

Length 83 m; draft 3.2 m.

Type: Cargo ship. MMSI: 314259000.

Date/timePositionNaut miles runAvg speedWind from/ knotsBaromVisibWave heightAir tempDewpointWater temp
2016-Dec-08 21:33N 51°54' E 004°25'0 0.0
2016-Dec-08 20:33N 51°54' E 004°25'0 0.0
2016-Dec-08 19:33N 51°54' E 004°25'7 6.7
2016-Dec-08 18:34N 51°55' E 004°14'8 8.3
2016-Dec-08 17:33N 51°59' E 004°03'9 9.4
2016-Dec-08 16:34N 51°59' E 003°47'2511.1
2016-Dec-08 14:21N 51°51' E 003°09'810.3
2016-Dec-08 13:32N 51°43' E 003°05'1010.0
2016-Dec-08 12:33N 51°34' E 003°03'1010.5
2016-Dec-08 11:33N 51°26' E 002°51'9 8.9
2016-Dec-08 10:34N 51°17' E 002°52'5 4.6
2016-Dec-08 09:33N 51°14' E 002°56'0 0.0
2016-Dec-08 08:33N 51°14' E 002°56'0 0.0
2016-Dec-08 07:33N 51°14' E 002°56'0 0.0
2016-Dec-08 06:33N 51°14' E 002°56'0 0.0
2016-Dec-08 05:30N 51°14' E 002°56'0 0.0
2016-Dec-08 04:33N 51°14' E 002°56'0 0.0
2016-Dec-08 03:33N 51°14' E 002°56'0 0.0
2016-Dec-08 02:33N 51°14' E 002°56'0 0.0
2016-Dec-08 01:33N 51°14' E 002°56'0 0.0
2016-Dec-08 00:33N 51°14' E 002°56'0 0.0
2016-Dec-07 23:33N 51°14' E 002°56'0 0.0
2016-Dec-07 22:33N 51°14' E 002°56'0 0.0
2016-Dec-07 21:33N 51°14' E 002°56'0 0.0
2016-Dec-07 20:33N 51°14' E 002°56'0 0.0
2016-Dec-07 19:33N 51°14' E 002°56'0 0.0
2016-Dec-07 18:33N 51°14' E 002°56'0 0.0
2016-Dec-07 17:33N 51°14' E 002°56'0 0.0
2016-Dec-07 16:33N 51°14' E 002°56'0 0.0
2016-Dec-07 15:33N 51°14' E 002°56'0 0.0
2016-Dec-07 14:33N 51°14' E 002°56'0 0.0
2016-Dec-07 13:33N 51°14' E 002°56'0 0.0
2016-Dec-07 12:33N 51°14' E 002°56'0 0.0
2016-Dec-07 11:33N 51°14' E 002°56'0 0.0
2016-Dec-07 10:33N 51°14' E 002°56'0 0.0
2016-Dec-07 09:33N 51°14' E 002°56'0 0.0
2016-Dec-07 08:34N 51°14' E 002°56'0 0.0
2016-Dec-07 07:33N 51°14' E 002°56'0 0.0
2016-Dec-07 06:33N 51°14' E 002°56'8 8.3
2016-Dec-07 05:33N 51°20' E 002°48'6 5.9
2016-Dec-07 04:33N 51°26' E 002°49'10 9.6
2016-Dec-07 03:34N 51°32' E 003°01'1111.4
2016-Dec-07 02:33N 51°42' E 003°10'1212.0
2016-Dec-07 01:33N 51°53' E 003°17'1212.0
2016-Dec-07 00:31N 52°05' E 003°21'38710.5
2016-Dec-05 11:33N 58°28' E 004°51'10 9.9
2016-Dec-05 10:33N 58°38' E 004°49'1010.1
2016-Dec-05 09:33N 58°48' E 004°48'270 8.4
2016-Dec-04 01:33N 63°10' E 007°01'8 7.9
2016-Dec-04 00:33N 63°13' E 007°16'9 8.6
2016-Dec-03 23:33N 63°15' E 007°35'9 9.3
2016-Dec-03 22:33N 63°13' E 007°55'10 9.9
2016-Dec-03 21:33N 63°18' E 008°14'2310.4
2016-Dec-03 19:18N 63°29' E 009°01'7 9.8
2016-Dec-03 18:33N 63°33' E 009°15'9 9.3
2016-Dec-03 17:33N 63°42' E 009°16'16412.6
2016-Dec-03 04:33N 66°14' E 011°43'6 6.2
2016-Dec-03 03:33N 66°15' E 011°58'6 6.1
2016-Dec-03 02:33N 66°17' E 012°13'7 7.4
2016-Dec-03 01:33N 66°15' E 011°55'18 6.1
2016-Dec-02 22:33N 66°13' E 012°40'1111.5
2016-Dec-02 21:34N 66°17' E 012°13'4031.9
2016-Dec-02 20:19N 66°16' E 013°51'8 8.5
2016-Dec-02 19:19N 66°15' E 013°31'5 6.6
2016-Dec-02 18:33N 66°15' E 013°43'7 6.6
2016-Dec-02 17:33N 66°17' E 013°59'4 3.4
2016-Dec-02 16:31N 66°18' E 014°07'0 0.0
2016-Dec-02 15:31N 66°18' E 014°07'0 0.0
2016-Dec-02 14:32N 66°18' E 014°07'0 0.0
2016-Dec-02 13:32N 66°18' E 014°07'0 0.0
2016-Dec-02 12:33N 66°18' E 014°07'0 0.0
2016-Dec-02 11:33N 66°18' E 014°07'0 0.0
2016-Dec-02 10:31N 66°18' E 014°07'0 0.0
2016-Dec-02 09:30N 66°18' E 014°07'0 0.0
2016-Dec-02 08:30N 66°18' E 014°07'0 0.0
2016-Dec-02 07:30N 66°18' E 014°07'0 0.0
2016-Dec-02 06:31N 66°18' E 014°07'0 0.0
2016-Dec-02 05:30N 66°18' E 014°07'0 0.0
2016-Dec-02 04:32N 66°18' E 014°07'0 0.0
2016-Dec-02 03:32N 66°18' E 014°07'206209.3
2016-Dec-02 02:33N 63°56' E 008°13'9 8.8
2016-Dec-02 01:33N 63°49' E 008°01'8 8.3
2016-Dec-02 00:32N 63°42' E 007°50'8 8.2
2016-Dec-01 23:32N 63°36' E 007°38'8 8.5
2016-Dec-01 22:32N 63°30' E 007°26'9 9.1
2016-Dec-01 21:33N 63°23' E 007°13'9 8.7
2016-Dec-01 20:33N 63°16' E 006°60'9 9.0
2016-Dec-01 19:33N 63°10' E 006°47'9 8.9
2016-Dec-01 18:33N 63°03' E 006°34'26 8.6
2016-Dec-01 15:33N 62°44' E 005°54'288128.0
2016-Dec-01 13:18N 66°27' E 012°59'334110.2
2016-Dec-01 10:16N 62°08' E 004°52'6 8.3
2016-Dec-01 09:33N 62°03' E 004°47'9 8.7
2016-Dec-01 08:34N 61°55' E 004°41'9 9.1
2016-Dec-01 07:32N 61°46' E 004°34'9 8.5
2016-Dec-01 06:32N 61°38' E 004°28'8 7.9
2016-Dec-01 05:33N 61°30' E 004°26'8 8.3
2016-Dec-01 04:32N 61°22' E 004°25'8 8.3
2016-Dec-01 03:33N 61°14' E 004°24'8 8.0
2016-Dec-01 02:33N 61°06' E 004°24'8 8.1
2016-Dec-01 01:33N 60°58' E 004°24'8 7.9
2016-Dec-01 00:34N 60°50' E 004°26'8 8.1
2016-Nov-30 23:33N 60°42' E 004°28'8 7.9
2016-Nov-30 22:33N 60°34' E 004°30'8 7.9
2016-Nov-30 21:33N 60°26' E 004°32'8 7.7
2016-Nov-30 20:33N 60°18' E 004°34'9 8.5
2016-Nov-30 19:33N 60°10' E 004°36'8 7.7
2016-Nov-30 18:33N 60°02' E 004°37'7 6.8
2016-Nov-30 17:33N 59°56' E 004°38'8 7.9
2016-Nov-30 16:33N 59°48' E 004°38'48042.0
2016-Nov-30 05:07N 66°47' E 013°19'610.5
2016-Nov-30 04:32N 66°42' E 013°10'1010.2
2016-Nov-30 03:33N 66°33' E 013°01'1110.7
2016-Nov-30 02:33N 66°22' E 012°58'1110.1
2016-Nov-30 01:28N 66°15' E 012°37'1010.5
2016-Nov-30 00:33N 66°17' E 012°13'21011.0
2016-Nov-29 05:31N 63°27' E 007°21'1212.6
2016-Nov-29 04:33N 63°18' E 007°03'4811.9
2016-Nov-29 00:33N 62°43' E 005°51'1312.4
2016-Nov-28 23:32N 62°33' E 005°35'1212.4
2016-Nov-28 22:34N 62°24' E 005°17'1211.5
2016-Nov-28 21:33N 62°16' E 005°00'  
Track history (hours):
 
Tides and Currents Weather Stations Pressure Air Temp Water Temp Dewpoint Dewpoint Depression Visibility Wind Speed Wind Dir Waves Ship Positions

Wilson Lahn

Last reported at 2016-Dec-08 21:33 UTC. Time now 2016-Dec-08 22:06 UTC.
Position N 51°54' E 004°25'.

Length 83 m; draft 3.2 m.

Type: Cargo ship. MMSI: 314259000.

Date/timePositionNaut miles runAvg speedWind from/ knotsBaromVisibWave heightAir tempDewpointWater temp
2016-Dec-08 21:33N 51°54' E 004°25'0 0.0
2016-Dec-08 20:33N 51°54' E 004°25'0 0.0
2016-Dec-08 19:33N 51°54' E 004°25'7 6.7
2016-Dec-08 18:34N 51°55' E 004°14'8 8.3
2016-Dec-08 17:33N 51°59' E 004°03'9 9.4
2016-Dec-08 16:34N 51°59' E 003°47'2511.1
2016-Dec-08 14:21N 51°51' E 003°09'810.3
2016-Dec-08 13:32N 51°43' E 003°05'1010.0
2016-Dec-08 12:33N 51°34' E 003°03'1010.5
2016-Dec-08 11:33N 51°26' E 002°51'9 8.9
2016-Dec-08 10:34N 51°17' E 002°52'5 4.6
2016-Dec-08 09:33N 51°14' E 002°56'0 0.0
2016-Dec-08 08:33N 51°14' E 002°56'0 0.0
2016-Dec-08 07:33N 51°14' E 002°56'0 0.0
2016-Dec-08 06:33N 51°14' E 002°56'0 0.0
2016-Dec-08 05:30N 51°14' E 002°56'0 0.0
2016-Dec-08 04:33N 51°14' E 002°56'0 0.0
2016-Dec-08 03:33N 51°14' E 002°56'0 0.0
2016-Dec-08 02:33N 51°14' E 002°56'0 0.0
2016-Dec-08 01:33N 51°14' E 002°56'0 0.0
2016-Dec-08 00:33N 51°14' E 002°56'0 0.0
2016-Dec-07 23:33N 51°14' E 002°56'0 0.0
2016-Dec-07 22:33N 51°14' E 002°56'0 0.0
2016-Dec-07 21:33N 51°14' E 002°56'0 0.0
2016-Dec-07 20:33N 51°14' E 002°56'0 0.0
2016-Dec-07 19:33N 51°14' E 002°56'0 0.0
2016-Dec-07 18:33N 51°14' E 002°56'0 0.0
2016-Dec-07 17:33N 51°14' E 002°56'0 0.0
2016-Dec-07 16:33N 51°14' E 002°56'0 0.0
2016-Dec-07 15:33N 51°14' E 002°56'0 0.0
2016-Dec-07 14:33N 51°14' E 002°56'0 0.0
2016-Dec-07 13:33N 51°14' E 002°56'0 0.0
2016-Dec-07 12:33N 51°14' E 002°56'0 0.0
2016-Dec-07 11:33N 51°14' E 002°56'0 0.0
2016-Dec-07 10:33N 51°14' E 002°56'0 0.0
2016-Dec-07 09:33N 51°14' E 002°56'0 0.0
2016-Dec-07 08:34N 51°14' E 002°56'0 0.0
2016-Dec-07 07:33N 51°14' E 002°56'0 0.0
2016-Dec-07 06:33N 51°14' E 002°56'8 8.3
2016-Dec-07 05:33N 51°20' E 002°48'6 5.9
2016-Dec-07 04:33N 51°26' E 002°49'10 9.6
2016-Dec-07 03:34N 51°32' E 003°01'1111.4
2016-Dec-07 02:33N 51°42' E 003°10'1212.0
2016-Dec-07 01:33N 51°53' E 003°17'1212.0
2016-Dec-07 00:31N 52°05' E 003°21'38710.5
2016-Dec-05 11:33N 58°28' E 004°51'10 9.9
2016-Dec-05 10:33N 58°38' E 004°49'1010.1
2016-Dec-05 09:33N 58°48' E 004°48'270 8.4
2016-Dec-04 01:33N 63°10' E 007°01'8 7.9
2016-Dec-04 00:33N 63°13' E 007°16'9 8.6
2016-Dec-03 23:33N 63°15' E 007°35'9 9.3
2016-Dec-03 22:33N 63°13' E 007°55'10 9.9
2016-Dec-03 21:33N 63°18' E 008°14'2310.4
2016-Dec-03 19:18N 63°29' E 009°01'7 9.8
2016-Dec-03 18:33N 63°33' E 009°15'9 9.3
2016-Dec-03 17:33N 63°42' E 009°16'16412.6
2016-Dec-03 04:33N 66°14' E 011°43'6 6.2
2016-Dec-03 03:33N 66°15' E 011°58'6 6.1
2016-Dec-03 02:33N 66°17' E 012°13'7 7.4
2016-Dec-03 01:33N 66°15' E 011°55'18 6.1
2016-Dec-02 22:33N 66°13' E 012°40'1111.5
2016-Dec-02 21:34N 66°17' E 012°13'4031.9
2016-Dec-02 20:19N 66°16' E 013°51'8 8.5
2016-Dec-02 19:19N 66°15' E 013°31'5 6.6
2016-Dec-02 18:33N 66°15' E 013°43'7 6.6
2016-Dec-02 17:33N 66°17' E 013°59'4 3.4
2016-Dec-02 16:31N 66°18' E 014°07'0 0.0
2016-Dec-02 15:31N 66°18' E 014°07'0 0.0
2016-Dec-02 14:32N 66°18' E 014°07'0 0.0
2016-Dec-02 13:32N 66°18' E 014°07'0 0.0
2016-Dec-02 12:33N 66°18' E 014°07'0 0.0
2016-Dec-02 11:33N 66°18' E 014°07'0 0.0
2016-Dec-02 10:31N 66°18' E 014°07'0 0.0
2016-Dec-02 09:30N 66°18' E 014°07'0 0.0
2016-Dec-02 08:30N 66°18' E 014°07'0 0.0
2016-Dec-02 07:30N 66°18' E 014°07'0 0.0
2016-Dec-02 06:31N 66°18' E 014°07'0 0.0
2016-Dec-02 05:30N 66°18' E 014°07'0 0.0
2016-Dec-02 04:32N 66°18' E 014°07'0 0.0
2016-Dec-02 03:32N 66°18' E 014°07'206209.3
2016-Dec-02 02:33N 63°56' E 008°13'9 8.8
2016-Dec-02 01:33N 63°49' E 008°01'8 8.3
2016-Dec-02 00:32N 63°42' E 007°50'8 8.2
2016-Dec-01 23:32N 63°36' E 007°38'8 8.5
2016-Dec-01 22:32N 63°30' E 007°26'9 9.1
2016-Dec-01 21:33N 63°23' E 007°13'9 8.7
2016-Dec-01 20:33N 63°16' E 006°60'9 9.0
2016-Dec-01 19:33N 63°10' E 006°47'9 8.9
2016-Dec-01 18:33N 63°03' E 006°34'26 8.6
2016-Dec-01 15:33N 62°44' E 005°54'288128.0
2016-Dec-01 13:18N 66°27' E 012°59'334110.2
2016-Dec-01 10:16N 62°08' E 004°52'6 8.3
2016-Dec-01 09:33N 62°03' E 004°47'9 8.7
2016-Dec-01 08:34N 61°55' E 004°41'9 9.1
2016-Dec-01 07:32N 61°46' E 004°34'9 8.5
2016-Dec-01 06:32N 61°38' E 004°28'8 7.9
2016-Dec-01 05:33N 61°30' E 004°26'8 8.3
2016-Dec-01 04:32N 61°22' E 004°25'8 8.3
2016-Dec-01 03:33N 61°14' E 004°24'8 8.0
2016-Dec-01 02:33N 61°06' E 004°24'8 8.1
2016-Dec-01 01:33N 60°58' E 004°24'8 7.9
2016-Dec-01 00:34N 60°50' E 004°26'8 8.1
2016-Nov-30 23:33N 60°42' E 004°28'8 7.9
2016-Nov-30 22:33N 60°34' E 004°30'8 7.9
2016-Nov-30 21:33N 60°26' E 004°32'8 7.7
2016-Nov-30 20:33N 60°18' E 004°34'9 8.5
2016-Nov-30 19:33N 60°10' E 004°36'8 7.7
2016-Nov-30 18:33N 60°02' E 004°37'7 6.8
2016-Nov-30 17:33N 59°56' E 004°38'8 7.9
2016-Nov-30 16:33N 59°48' E 004°38'48042.0
2016-Nov-30 05:07N 66°47' E 013°19'610.5
2016-Nov-30 04:32N 66°42' E 013°10'1010.2
2016-Nov-30 03:33N 66°33' E 013°01'1110.7
2016-Nov-30 02:33N 66°22' E 012°58'1110.1
2016-Nov-30 01:28N 66°15' E 012°37'1010.5
2016-Nov-30 00:33N 66°17' E 012°13'21011.0
2016-Nov-29 05:31N 63°27' E 007°21'1212.6
2016-Nov-29 04:33N 63°18' E 007°03'4811.9
2016-Nov-29 00:33N 62°43' E 005°51'1312.4
2016-Nov-28 23:32N 62°33' E 005°35'1212.4
2016-Nov-28 22:34N 62°24' E 005°17'1211.5
2016-Nov-28 21:33N 62°16' E 005°00'  

Dump ship's entire track history